Pittsburgh International Airport
KPIT : now visible

Airfield :











YOU CAN JOIN US ON...

 
LOGIN :

Register | Disclaimer

   EN    FR    IT 

 









Legend :    VFR   Marginal VFR   IFR   Intensive IFR   Very Intensive IFR
Visi :
Ceiling :
>= 8 km
>= 3000ft
5 to 8 km
1000 to 3000 ft
1500m to 5 km
500 to 1000 ft
800 to 1500m
200 to 500 ft
< 800m
< 200 ft
Symbols :   Thunderstorms  Fog  Heavy snow  Heavy precipitations  Wind > 20 kt






- Airport Elevation : 1203 ft
- IATA code : PIT


KPIT - Pittsburgh International

CURRENT METAR :
  • 201951Z 22007KT 10SM BKN035 BKN046 29/20 A2977 RMK AO2 SLP077 T02890200

EXPIRED METARs :
  • 201851Z 23010KT 10SM SCT033 SCT045 28/20 A2978 RMK AO2 SLP082 T02830200
  • 201751Z 22011KT 10SM SCT031 BKN042 BKN250 28/20 A2980 RMK AO2 SLP088 60000 T02830200 10283 20222 58016

TAF KPIT
Valid from the 20 at 20:00 until the 22 at 00:00 UTC


201935Z 2020/2124 23008G16KT P6SM BKN035
FM210000 20004KT P6SM SCT250
FM211300 21010G20KT P6SM SCT120
FM212100 26010G19KT P6SM -TSRA OVC035CB
KZOB FIR / North America



MET'MAP, your aeronautical weather chart ! - Copyright ORBIFLY December 2007 - Disclaimer

ORBIFLY MET'MAP TEAM :

Programming & Development : Alexandra Zaïnal
Concept & original design : Baudouin d'Aumeries
Assistance for programming : Marc-Olivier Méhu
Technical & hardware support : Manuel Goepfert

Contact : metmap@orbifly.com




SOURCES & CREDITS :

   NOAA       Earth
Advisory